sensor_id;sensor_type;location;lat;lon;timestamp;temperature;humidity
34099;DHT22;20374;49.474;10.944;2023-07-16T00:01:46;19.60;99.90
34099;DHT22;20374;49.474;10.944;2023-07-16T00:04:12;19.60;99.90
34099;DHT22;20374;49.474;10.944;2023-07-16T00:06:38;19.60;99.90
34099;DHT22;20374;49.474;10.944;2023-07-16T00:09:04;19.60;99.90
34099;DHT22;20374;49.474;10.944;2023-07-16T00:11:30;19.70;99.90
34099;DHT22;20374;49.474;10.944;2023-07-16T00:13:56;19.70;99.90
34099;DHT22;20374;49.474;10.944;2023-07-16T00:16:22;19.70;99.90
34099;DHT22;20374;49.474;10.944;2023-07-16T00:18:47;19.70;99.90
34099;DHT22;20374;49.474;10.944;2023-07-16T00:21:13;19.70;99.90
34099;DHT22;20374;49.474;10.944;2023-07-16T00:23:39;19.70;99.90
34099;DHT22;20374;49.474;10.944;2023-07-16T00:26:05;19.70;99.90
34099;DHT22;20374;49.474;10.944;2023-07-16T00:28:31;19.70;99.90
34099;DHT22;20374;49.474;10.944;2023-07-16T00:30:57;19.70;99.90
34099;DHT22;20374;49.474;10.944;2023-07-16T00:33:23;19.60;99.90
34099;DHT22;20374;49.474;10.944;2023-07-16T00:35:50;19.60;99.90
34099;DHT22;20374;49.474;10.944;2023-07-16T00:38:19;19.60;99.90
34099;DHT22;20374;49.474;10.944;2023-07-16T00:40:49;19.60;99.90
34099;DHT22;20374;49.474;10.944;2023-07-16T00:43:15;19.60;99.90
34099;DHT22;20374;49.474;10.944;2023-07-16T00:45:42;19.60;99.90
34099;DHT22;20374;49.474;10.944;2023-07-16T00:48:10;19.60;99.90
34099;DHT22;20374;49.474;10.944;2023-07-16T00:50:38;19.60;99.90
34099;DHT22;20374;49.474;10.944;2023-07-16T00:53:08;19.60;99.90
34099;DHT22;20374;49.474;10.944;2023-07-16T00:55:36;19.50;99.90
34099;DHT22;20374;49.474;10.944;2023-07-16T00:58:06;19.50;99.90
34099;DHT22;20374;49.474;10.944;2023-07-16T01:00:36;19.50;99.90
34099;DHT22;20374;49.474;10.944;2023-07-16T01:03:09;19.50;99.90
34099;DHT22;20374;49.474;10.944;2023-07-16T01:08:10;19.50;99.90
34099;DHT22;20374;49.474;10.944;2023-07-16T01:10:38;19.50;99.90
34099;DHT22;20374;49.474;10.944;2023-07-16T01:13:05;19.40;99.90
34099;DHT22;20374;49.474;10.944;2023-07-16T01:15:31;19.40;99.90
34099;DHT22;20374;49.474;10.944;2023-07-16T01:17:57;19.40;99.90
34099;DHT22;20374;49.474;10.944;2023-07-16T01:20:24;19.30;99.90
34099;DHT22;20374;49.474;10.944;2023-07-16T01:25:48;19.20;99.90
34099;DHT22;20374;49.474;10.944;2023-07-16T01:31:17;19.10;99.90
34099;DHT22;20374;49.474;10.944;2023-07-16T01:33:43;19.00;99.90
34099;DHT22;20374;49.474;10.944;2023-07-16T01:36:13;18.90;99.90
34099;DHT22;20374;49.474;10.944;2023-07-16T01:38:39;18.90;99.90
34099;DHT22;20374;49.474;10.944;2023-07-16T01:41:05;18.90;99.90
34099;DHT22;20374;49.474;10.944;2023-07-16T01:43:31;18.80;99.90
34099;DHT22;20374;49.474;10.944;2023-07-16T01:45:57;18.80;99.90
34099;DHT22;20374;49.474;10.944;2023-07-16T01:50:52;18.70;99.90
34099;DHT22;20374;49.474;10.944;2023-07-16T01:53:18;18.70;99.90
34099;DHT22;20374;49.474;10.944;2023-07-16T01:55:44;18.70;99.90
34099;DHT22;20374;49.474;10.944;2023-07-16T01:58:10;18.60;99.90
34099;DHT22;20374;49.474;10.944;2023-07-16T02:00:36;18.60;99.90
34099;DHT22;20374;49.474;10.944;2023-07-16T02:03:02;18.60;99.90
34099;DHT22;20374;49.474;10.944;2023-07-16T02:05:31;18.60;99.90
34099;DHT22;20374;49.474;10.944;2023-07-16T02:07:57;18.70;99.90
34099;DHT22;20374;49.474;10.944;2023-07-16T02:10:23;18.70;99.90
34099;DHT22;20374;49.474;10.944;2023-07-16T02:12:49;18.70;99.90
34099;DHT22;20374;49.474;10.944;2023-07-16T02:15:15;18.70;99.90
34099;DHT22;20374;49.474;10.944;2023-07-16T02:17:42;18.70;99.90
34099;DHT22;20374;49.474;10.944;2023-07-16T02:20:09;18.70;99.90
34099;DHT22;20374;49.474;10.944;2023-07-16T02:22:38;18.70;99.90
34099;DHT22;20374;49.474;10.944;2023-07-16T02:25:04;18.70;99.90
34099;DHT22;20374;49.474;10.944;2023-07-16T02:27:31;18.70;99.90
34099;DHT22;20374;49.474;10.944;2023-07-16T02:29:56;18.70;99.90
34099;DHT22;20374;49.474;10.944;2023-07-16T02:32:22;18.70;99.90
34099;DHT22;20374;49.474;10.944;2023-07-16T02:34:48;18.70;99.90
34099;DHT22;20374;49.474;10.944;2023-07-16T02:37:14;18.70;99.90
34099;DHT22;20374;49.474;10.944;2023-07-16T02:39:41;18.70;99.90
34099;DHT22;20374;49.474;10.944;2023-07-16T02:42:08;18.70;99.90
34099;DHT22;20374;49.474;10.944;2023-07-16T02:44:34;18.60;99.90
34099;DHT22;20374;49.474;10.944;2023-07-16T02:47:04;18.60;99.90
34099;DHT22;20374;49.474;10.944;2023-07-16T02:49:30;18.60;99.90
34099;DHT22;20374;49.474;10.944;2023-07-16T02:51:57;18.60;99.90
34099;DHT22;20374;49.474;10.944;2023-07-16T02:54:22;18.60;99.90
34099;DHT22;20374;49.474;10.944;2023-07-16T02:56:48;18.60;99.90
34099;DHT22;20374;49.474;10.944;2023-07-16T02:59:14;18.50;99.90
34099;DHT22;20374;49.474;10.944;2023-07-16T03:01:40;18.50;99.90
34099;DHT22;20374;49.474;10.944;2023-07-16T03:04:06;18.50;99.90
34099;DHT22;20374;49.474;10.944;2023-07-16T03:06:32;18.50;99.90
34099;DHT22;20374;49.474;10.944;2023-07-16T03:08:58;18.50;99.90
34099;DHT22;20374;49.474;10.944;2023-07-16T03:11:24;18.50;99.90
34099;DHT22;20374;49.474;10.944;2023-07-16T03:13:50;18.50;99.90
34099;DHT22;20374;49.474;10.944;2023-07-16T03:16:15;18.40;99.90
34099;DHT22;20374;49.474;10.944;2023-07-16T03:18:42;18.40;99.90
34099;DHT22;20374;49.474;10.944;2023-07-16T03:21:08;18.40;99.90
34099;DHT22;20374;49.474;10.944;2023-07-16T03:23:34;18.40;99.90
34099;DHT22;20374;49.474;10.944;2023-07-16T03:26:00;18.30;99.90
34099;DHT22;20374;49.474;10.944;2023-07-16T03:28:26;18.20;99.90
34099;DHT22;20374;49.474;10.944;2023-07-16T03:30:52;18.20;99.90
34099;DHT22;20374;49.474;10.944;2023-07-16T03:33:20;18.20;99.90
34099;DHT22;20374;49.474;10.944;2023-07-16T03:35:47;18.20;99.90
34099;DHT22;20374;49.474;10.944;2023-07-16T03:38:13;18.20;99.90
34099;DHT22;20374;49.474;10.944;2023-07-16T03:40:46;18.20;99.90
34099;DHT22;20374;49.474;10.944;2023-07-16T03:43:12;18.20;99.90
34099;DHT22;20374;49.474;10.944;2023-07-16T03:45:38;18.10;99.90
34099;DHT22;20374;49.474;10.944;2023-07-16T03:48:04;18.10;99.90
34099;DHT22;20374;49.474;10.944;2023-07-16T03:50:30;18.00;99.90
34099;DHT22;20374;49.474;10.944;2023-07-16T03:52:56;18.00;99.90
34099;DHT22;20374;49.474;10.944;2023-07-16T03:55:22;18.00;99.90
34099;DHT22;20374;49.474;10.944;2023-07-16T03:57:49;18.00;99.90
34099;DHT22;20374;49.474;10.944;2023-07-16T04:00:15;18.00;99.90
34099;DHT22;20374;49.474;10.944;2023-07-16T04:02:41;18.00;99.90
34099;DHT22;20374;49.474;10.944;2023-07-16T04:05:12;18.00;99.90
34099;DHT22;20374;49.474;10.944;2023-07-16T04:07:38;18.00;99.90
34099;DHT22;20374;49.474;10.944;2023-07-16T04:10:05;18.00;99.90
34099;DHT22;20374;49.474;10.944;2023-07-16T04:12:31;18.00;99.90
34099;DHT22;20374;49.474;10.944;2023-07-16T04:14:58;18.00;99.90
34099;DHT22;20374;49.474;10.944;2023-07-16T04:17:24;17.90;99.90
34099;DHT22;20374;49.474;10.944;2023-07-16T04:19:50;17.90;99.90
34099;DHT22;20374;49.474;10.944;2023-07-16T04:22:16;17.80;99.90
34099;DHT22;20374;49.474;10.944;2023-07-16T04:24:42;17.80;99.90
34099;DHT22;20374;49.474;10.944;2023-07-16T04:27:08;17.80;99.90
34099;DHT22;20374;49.474;10.944;2023-07-16T04:29:34;17.80;99.90
34099;DHT22;20374;49.474;10.944;2023-07-16T04:32:00;17.70;99.90
34099;DHT22;20374;49.474;10.944;2023-07-16T04:34:26;17.60;99.90
34099;DHT22;20374;49.474;10.944;2023-07-16T04:36:52;17.60;99.90
34099;DHT22;20374;49.474;10.944;2023-07-16T04:39:18;17.50;99.90
34099;DHT22;20374;49.474;10.944;2023-07-16T04:41:44;17.50;99.90
34099;DHT22;20374;49.474;10.944;2023-07-16T04:44:10;17.60;99.90
34099;DHT22;20374;49.474;10.944;2023-07-16T04:46:36;17.60;99.90
34099;DHT22;20374;49.474;10.944;2023-07-16T04:49:04;17.90;99.90
34099;DHT22;20374;49.474;10.944;2023-07-16T04:51:30;18.00;99.90
34099;DHT22;20374;49.474;10.944;2023-07-16T04:53:56;17.90;99.90
34099;DHT22;20374;49.474;10.944;2023-07-16T04:56:21;17.80;99.90
34099;DHT22;20374;49.474;10.944;2023-07-16T04:58:47;17.70;99.90
34099;DHT22;20374;49.474;10.944;2023-07-16T05:01:13;17.60;99.90
34099;DHT22;20374;49.474;10.944;2023-07-16T05:03:39;17.50;99.90
34099;DHT22;20374;49.474;10.944;2023-07-16T05:06:05;17.50;99.90
34099;DHT22;20374;49.474;10.944;2023-07-16T05:08:31;17.50;99.90
34099;DHT22;20374;49.474;10.944;2023-07-16T05:10:57;17.60;99.90
34099;DHT22;20374;49.474;10.944;2023-07-16T05:13:24;17.60;99.90
34099;DHT22;20374;49.474;10.944;2023-07-16T05:15:50;17.60;99.90
34099;DHT22;20374;49.474;10.944;2023-07-16T05:18:16;17.50;99.90
34099;DHT22;20374;49.474;10.944;2023-07-16T05:20:42;17.40;99.90
34099;DHT22;20374;49.474;10.944;2023-07-16T05:23:10;17.40;99.90
34099;DHT22;20374;49.474;10.944;2023-07-16T05:25:36;17.40;99.90
34099;DHT22;20374;49.474;10.944;2023-07-16T05:28:01;17.40;99.90
34099;DHT22;20374;49.474;10.944;2023-07-16T05:30:27;17.40;99.90
34099;DHT22;20374;49.474;10.944;2023-07-16T05:32:53;17.40;99.90
34099;DHT22;20374;49.474;10.944;2023-07-16T05:35:19;17.40;99.90
34099;DHT22;20374;49.474;10.944;2023-07-16T05:37:45;17.30;99.90
34099;DHT22;20374;49.474;10.944;2023-07-16T05:40:11;17.30;99.90
34099;DHT22;20374;49.474;10.944;2023-07-16T05:42:37;17.30;99.90
34099;DHT22;20374;49.474;10.944;2023-07-16T05:45:03;17.30;99.90
34099;DHT22;20374;49.474;10.944;2023-07-16T05:47:29;17.30;99.90
34099;DHT22;20374;49.474;10.944;2023-07-16T05:49:55;17.30;99.90
34099;DHT22;20374;49.474;10.944;2023-07-16T05:52:21;17.30;99.90
34099;DHT22;20374;49.474;10.944;2023-07-16T05:54:47;17.30;99.90
34099;DHT22;20374;49.474;10.944;2023-07-16T05:57:13;17.30;99.90
34099;DHT22;20374;49.474;10.944;2023-07-16T05:59:39;17.40;99.90
34099;DHT22;20374;49.474;10.944;2023-07-16T06:02:05;17.40;99.90
34099;DHT22;20374;49.474;10.944;2023-07-16T06:04:32;17.40;99.90
34099;DHT22;20374;49.474;10.944;2023-07-16T06:06:58;17.40;99.90
34099;DHT22;20374;49.474;10.944;2023-07-16T06:09:24;17.50;99.90
34099;DHT22;20374;49.474;10.944;2023-07-16T06:11:50;17.50;99.90
34099;DHT22;20374;49.474;10.944;2023-07-16T06:14:16;17.50;99.90
34099;DHT22;20374;49.474;10.944;2023-07-16T06:16:42;17.50;99.90
34099;DHT22;20374;49.474;10.944;2023-07-16T06:19:08;17.50;99.90
34099;DHT22;20374;49.474;10.944;2023-07-16T06:21:34;17.50;99.90
34099;DHT22;20374;49.474;10.944;2023-07-16T06:24:00;17.60;99.90
34099;DHT22;20374;49.474;10.944;2023-07-16T06:26:26;17.60;99.90
34099;DHT22;20374;49.474;10.944;2023-07-16T06:28:52;17.60;99.90
34099;DHT22;20374;49.474;10.944;2023-07-16T06:31:18;17.60;99.90
34099;DHT22;20374;49.474;10.944;2023-07-16T06:33:44;17.60;99.90
34099;DHT22;20374;49.474;10.944;2023-07-16T06:36:13;17.60;99.90
34099;DHT22;20374;49.474;10.944;2023-07-16T06:38:39;17.70;99.90
34099;DHT22;20374;49.474;10.944;2023-07-16T06:41:04;17.80;99.90
34099;DHT22;20374;49.474;10.944;2023-07-16T06:43:30;17.80;99.90
34099;DHT22;20374;49.474;10.944;2023-07-16T06:45:56;17.90;99.90
34099;DHT22;20374;49.474;10.944;2023-07-16T06:48:22;17.90;99.90
34099;DHT22;20374;49.474;10.944;2023-07-16T06:50:50;18.00;99.90
34099;DHT22;20374;49.474;10.944;2023-07-16T06:53:15;18.00;99.90
34099;DHT22;20374;49.474;10.944;2023-07-16T06:55:41;18.00;99.90
34099;DHT22;20374;49.474;10.944;2023-07-16T06:58:10;18.00;99.90
34099;DHT22;20374;49.474;10.944;2023-07-16T07:00:37;18.10;99.90
34099;DHT22;20374;49.474;10.944;2023-07-16T07:03:03;18.20;99.90
34099;DHT22;20374;49.474;10.944;2023-07-16T07:05:28;18.20;99.90
34099;DHT22;20374;49.474;10.944;2023-07-16T07:07:54;18.20;99.90
34099;DHT22;20374;49.474;10.944;2023-07-16T07:10:20;18.20;99.90
34099;DHT22;20374;49.474;10.944;2023-07-16T07:12:46;18.10;99.90
34099;DHT22;20374;49.474;10.944;2023-07-16T07:15:13;18.00;99.90
34099;DHT22;20374;49.474;10.944;2023-07-16T07:17:39;18.00;99.90
34099;DHT22;20374;49.474;10.944;2023-07-16T07:20:08;17.90;99.90
34099;DHT22;20374;49.474;10.944;2023-07-16T07:22:34;17.90;99.90
34099;DHT22;20374;49.474;10.944;2023-07-16T07:25:00;17.80;99.90
34099;DHT22;20374;49.474;10.944;2023-07-16T07:27:26;17.70;99.90
34099;DHT22;20374;49.474;10.944;2023-07-16T07:29:52;17.70;99.90
34099;DHT22;20374;49.474;10.944;2023-07-16T07:32:21;17.70;99.90
34099;DHT22;20374;49.474;10.944;2023-07-16T07:34:48;17.70;99.90
34099;DHT22;20374;49.474;10.944;2023-07-16T07:37:14;17.90;99.90
34099;DHT22;20374;49.474;10.944;2023-07-16T07:39:40;18.00;99.90
34099;DHT22;20374;49.474;10.944;2023-07-16T07:42:06;18.30;99.90
34099;DHT22;20374;49.474;10.944;2023-07-16T07:44:32;18.40;99.90
34099;DHT22;20374;49.474;10.944;2023-07-16T07:46:58;18.70;99.90
34099;DHT22;20374;49.474;10.944;2023-07-16T07:49:24;18.80;99.90
34099;DHT22;20374;49.474;10.944;2023-07-16T07:51:50;18.80;99.90
34099;DHT22;20374;49.474;10.944;2023-07-16T07:54:16;18.90;99.90
34099;DHT22;20374;49.474;10.944;2023-07-16T07:56:42;18.90;99.90
34099;DHT22;20374;49.474;10.944;2023-07-16T07:59:08;18.80;99.90
34099;DHT22;20374;49.474;10.944;2023-07-16T08:01:34;18.70;99.90
34099;DHT22;20374;49.474;10.944;2023-07-16T08:04:01;18.70;99.90
34099;DHT22;20374;49.474;10.944;2023-07-16T08:06:27;18.60;99.90
34099;DHT22;20374;49.474;10.944;2023-07-16T08:08:53;18.60;99.90
34099;DHT22;20374;49.474;10.944;2023-07-16T08:11:19;18.50;99.90
34099;DHT22;20374;49.474;10.944;2023-07-16T08:13:45;18.50;99.90
34099;DHT22;20374;49.474;10.944;2023-07-16T08:16:10;18.50;99.90
34099;DHT22;20374;49.474;10.944;2023-07-16T08:18:36;18.50;99.90
34099;DHT22;20374;49.474;10.944;2023-07-16T08:21:02;18.50;99.90
34099;DHT22;20374;49.474;10.944;2023-07-16T08:23:28;18.50;99.90
34099;DHT22;20374;49.474;10.944;2023-07-16T08:25:54;18.60;99.90
34099;DHT22;20374;49.474;10.944;2023-07-16T08:28:20;18.70;99.90
34099;DHT22;20374;49.474;10.944;2023-07-16T08:30:49;18.80;99.90
34099;DHT22;20374;49.474;10.944;2023-07-16T08:33:15;18.80;99.90
34099;DHT22;20374;49.474;10.944;2023-07-16T08:35:41;18.80;99.90
34099;DHT22;20374;49.474;10.944;2023-07-16T08:38:08;18.80;99.90
34099;DHT22;20374;49.474;10.944;2023-07-16T08:40:38;18.90;99.90
34099;DHT22;20374;49.474;10.944;2023-07-16T08:43:06;19.00;99.90
34099;DHT22;20374;49.474;10.944;2023-07-16T08:45:40;19.30;99.90
34099;DHT22;20374;49.474;10.944;2023-07-16T08:48:08;19.30;99.90
34099;DHT22;20374;49.474;10.944;2023-07-16T08:50:38;19.40;99.90
34099;DHT22;20374;49.474;10.944;2023-07-16T08:53:05;19.40;99.90
34099;DHT22;20374;49.474;10.944;2023-07-16T08:55:31;19.60;99.90
34099;DHT22;20374;49.474;10.944;2023-07-16T08:58:01;20.10;99.90
34099;DHT22;20374;49.474;10.944;2023-07-16T09:00:28;20.40;99.90
34099;DHT22;20374;49.474;10.944;2023-07-16T09:02:55;20.60;99.90
34099;DHT22;20374;49.474;10.944;2023-07-16T09:05:21;20.90;99.90
34099;DHT22;20374;49.474;10.944;2023-07-16T09:07:48;21.10;99.90
34099;DHT22;20374;49.474;10.944;2023-07-16T09:10:14;21.20;99.90
34099;DHT22;20374;49.474;10.944;2023-07-16T09:12:44;21.30;99.90
34099;DHT22;20374;49.474;10.944;2023-07-16T09:15:11;21.70;99.90
34099;DHT22;20374;49.474;10.944;2023-07-16T09:17:37;21.90;99.90
34099;DHT22;20374;49.474;10.944;2023-07-16T09:20:04;22.10;99.90
34099;DHT22;20374;49.474;10.944;2023-07-16T09:22:33;22.10;99.90
34099;DHT22;20374;49.474;10.944;2023-07-16T09:25:00;22.00;99.90
34099;DHT22;20374;49.474;10.944;2023-07-16T09:27:32;22.20;99.90
34099;DHT22;20374;49.474;10.944;2023-07-16T09:29:58;22.10;99.90
34099;DHT22;20374;49.474;10.944;2023-07-16T09:32:38;22.20;99.90
34099;DHT22;20374;49.474;10.944;2023-07-16T09:35:14;22.10;99.90
34099;DHT22;20374;49.474;10.944;2023-07-16T09:37:43;22.40;99.90
34099;DHT22;20374;49.474;10.944;2023-07-16T09:40:11;23.60;99.90
34099;DHT22;20374;49.474;10.944;2023-07-16T09:42:39;24.10;99.80
34099;DHT22;20374;49.474;10.944;2023-07-16T09:45:18;24.10;99.90
34099;DHT22;20374;49.474;10.944;2023-07-16T09:47:44;24.60;99.90
34099;DHT22;20374;49.474;10.944;2023-07-16T09:50:11;25.30;99.90
34099;DHT22;20374;49.474;10.944;2023-07-16T09:52:37;26.20;97.40
34099;DHT22;20374;49.474;10.944;2023-07-16T09:55:08;26.50;95.90
34099;DHT22;20374;49.474;10.944;2023-07-16T09:57:41;27.00;95.50
34099;DHT22;20374;49.474;10.944;2023-07-16T10:00:09;27.00;93.20
34099;DHT22;20374;49.474;10.944;2023-07-16T10:02:40;27.00;93.20
34099;DHT22;20374;49.474;10.944;2023-07-16T10:05:19;26.40;92.80
34099;DHT22;20374;49.474;10.944;2023-07-16T10:07:56;26.60;92.90
34099;DHT22;20374;49.474;10.944;2023-07-16T10:10:39;26.20;92.20
34099;DHT22;20374;49.474;10.944;2023-07-16T10:13:07;25.20;93.50
34099;DHT22;20374;49.474;10.944;2023-07-16T10:15:33;24.70;95.40
34099;DHT22;20374;49.474;10.944;2023-07-16T10:17:59;24.40;95.90
34099;DHT22;20374;49.474;10.944;2023-07-16T10:20:35;24.00;96.60
34099;DHT22;20374;49.474;10.944;2023-07-16T10:23:15;23.60;96.60
34099;DHT22;20374;49.474;10.944;2023-07-16T10:26:02;23.10;97.10
34099;DHT22;20374;49.474;10.944;2023-07-16T10:28:33;23.00;96.40
34099;DHT22;20374;49.474;10.944;2023-07-16T10:31:00;22.70;96.60
34099;DHT22;20374;49.474;10.944;2023-07-16T10:33:26;22.40;95.90
34099;DHT22;20374;49.474;10.944;2023-07-16T10:35:51;22.30;96.60
34099;DHT22;20374;49.474;10.944;2023-07-16T10:38:18;22.40;96.80
34099;DHT22;20374;49.474;10.944;2023-07-16T10:40:45;22.60;96.40
34099;DHT22;20374;49.474;10.944;2023-07-16T10:43:11;22.70;98.20
34099;DHT22;20374;49.474;10.944;2023-07-16T10:45:37;22.70;97.60
34099;DHT22;20374;49.474;10.944;2023-07-16T10:48:04;22.80;96.50
34099;DHT22;20374;49.474;10.944;2023-07-16T10:50:33;22.80;98.30
34099;DHT22;20374;49.474;10.944;2023-07-16T10:53:00;22.70;97.50
34099;DHT22;20374;49.474;10.944;2023-07-16T10:55:27;22.40;96.60
34099;DHT22;20374;49.474;10.944;2023-07-16T10:57:54;22.30;96.60
34099;DHT22;20374;49.474;10.944;2023-07-16T11:00:21;22.40;97.20
34099;DHT22;20374;49.474;10.944;2023-07-16T11:02:49;22.40;97.00
34099;DHT22;20374;49.474;10.944;2023-07-16T11:05:17;22.50;97.90
34099;DHT22;20374;49.474;10.944;2023-07-16T11:07:47;23.60;96.60
34099;DHT22;20374;49.474;10.944;2023-07-16T11:10:17;24.50;95.80
34099;DHT22;20374;49.474;10.944;2023-07-16T11:12:43;24.90;93.60
34099;DHT22;20374;49.474;10.944;2023-07-16T11:15:09;25.50;94.00
34099;DHT22;20374;49.474;10.944;2023-07-16T11:17:38;26.00;90.50
34099;DHT22;20374;49.474;10.944;2023-07-16T11:20:08;26.20;89.10
34099;DHT22;20374;49.474;10.944;2023-07-16T11:22:37;26.00;90.30
34099;DHT22;20374;49.474;10.944;2023-07-16T11:25:10;25.90;90.90
34099;DHT22;20374;49.474;10.944;2023-07-16T11:27:36;25.60;91.00
34099;DHT22;20374;49.474;10.944;2023-07-16T11:30:03;25.20;92.20
34099;DHT22;20374;49.474;10.944;2023-07-16T11:32:41;25.30;92.50
34099;DHT22;20374;49.474;10.944;2023-07-16T11:35:10;25.10;90.30
34099;DHT22;20374;49.474;10.944;2023-07-16T11:37:36;24.70;90.80
34099;DHT22;20374;49.474;10.944;2023-07-16T11:40:07;24.50;90.70
34099;DHT22;20374;49.474;10.944;2023-07-16T11:42:38;24.60;90.90
34099;DHT22;20374;49.474;10.944;2023-07-16T11:45:14;24.40;91.80
34099;DHT22;20374;49.474;10.944;2023-07-16T11:47:40;24.50;90.80
34099;DHT22;20374;49.474;10.944;2023-07-16T11:50:07;24.50;90.90
34099;DHT22;20374;49.474;10.944;2023-07-16T11:52:33;24.60;91.10
34099;DHT22;20374;49.474;10.944;2023-07-16T11:54:59;25.10;91.40
34099;DHT22;20374;49.474;10.944;2023-07-16T11:57:26;25.70;89.90
34099;DHT22;20374;49.474;10.944;2023-07-16T11:59:52;25.90;87.10
34099;DHT22;20374;49.474;10.944;2023-07-16T12:02:20;25.80;89.60
34099;DHT22;20374;49.474;10.944;2023-07-16T12:04:46;26.10;90.70
34099;DHT22;20374;49.474;10.944;2023-07-16T12:07:11;26.70;89.30
34099;DHT22;20374;49.474;10.944;2023-07-16T12:09:37;27.50;85.90
34099;DHT22;20374;49.474;10.944;2023-07-16T12:12:04;27.80;84.50
34099;DHT22;20374;49.474;10.944;2023-07-16T12:14:30;27.80;83.90
34099;DHT22;20374;49.474;10.944;2023-07-16T12:16:56;27.90;82.90
34099;DHT22;20374;49.474;10.944;2023-07-16T12:19:22;28.20;84.10
34099;DHT22;20374;49.474;10.944;2023-07-16T12:21:48;28.10;79.80
34099;DHT22;20374;49.474;10.944;2023-07-16T12:24:14;27.40;79.80
34099;DHT22;20374;49.474;10.944;2023-07-16T12:26:40;26.50;82.10
34099;DHT22;20374;49.474;10.944;2023-07-16T12:29:06;26.00;86.50
34099;DHT22;20374;49.474;10.944;2023-07-16T12:31:32;25.70;86.20
34099;DHT22;20374;49.474;10.944;2023-07-16T12:33:59;25.30;87.30
34099;DHT22;20374;49.474;10.944;2023-07-16T12:36:27;25.10;90.20
34099;DHT22;20374;49.474;10.944;2023-07-16T12:38:53;24.90;88.50
34099;DHT22;20374;49.474;10.944;2023-07-16T12:41:19;25.10;90.20
34099;DHT22;20374;49.474;10.944;2023-07-16T12:43:46;25.80;90.40
34099;DHT22;20374;49.474;10.944;2023-07-16T12:46:12;27.00;86.60
34099;DHT22;20374;49.474;10.944;2023-07-16T12:48:38;27.30;80.60
34099;DHT22;20374;49.474;10.944;2023-07-16T12:51:04;27.70;83.80
34099;DHT22;20374;49.474;10.944;2023-07-16T12:53:29;27.80;80.00
34099;DHT22;20374;49.474;10.944;2023-07-16T12:55:55;27.50;81.30
34099;DHT22;20374;49.474;10.944;2023-07-16T12:58:22;27.90;79.60
34099;DHT22;20374;49.474;10.944;2023-07-16T13:00:48;28.50;81.10
34099;DHT22;20374;49.474;10.944;2023-07-16T13:03:14;29.10;81.60
34099;DHT22;20374;49.474;10.944;2023-07-16T13:05:43;29.30;77.90
34099;DHT22;20374;49.474;10.944;2023-07-16T13:08:09;29.40;78.60
34099;DHT22;20374;49.474;10.944;2023-07-16T13:10:36;29.80;80.20
34099;DHT22;20374;49.474;10.944;2023-07-16T13:13:02;29.90;77.60
34099;DHT22;20374;49.474;10.944;2023-07-16T13:15:29;29.10;77.10
34099;DHT22;20374;49.474;10.944;2023-07-16T13:17:55;28.40;76.40
34099;DHT22;20374;49.474;10.944;2023-07-16T13:20:22;27.90;79.70
34099;DHT22;20374;49.474;10.944;2023-07-16T13:22:49;28.30;81.90
34099;DHT22;20374;49.474;10.944;2023-07-16T13:25:15;28.90;76.40
34099;DHT22;20374;49.474;10.944;2023-07-16T13:27:41;29.10;78.10
34099;DHT22;20374;49.474;10.944;2023-07-16T13:30:08;28.80;77.30
34099;DHT22;20374;49.474;10.944;2023-07-16T13:32:34;28.60;78.60
34099;DHT22;20374;49.474;10.944;2023-07-16T13:35:00;28.70;76.00
34099;DHT22;20374;49.474;10.944;2023-07-16T13:37:26;28.90;80.30
34099;DHT22;20374;49.474;10.944;2023-07-16T13:39:51;28.90;77.90
34099;DHT22;20374;49.474;10.944;2023-07-16T13:42:17;28.90;76.10
34099;DHT22;20374;49.474;10.944;2023-07-16T13:44:43;28.20;75.50
34099;DHT22;20374;49.474;10.944;2023-07-16T13:47:09;28.20;79.90
34099;DHT22;20374;49.474;10.944;2023-07-16T13:49:35;27.50;75.60
34099;DHT22;20374;49.474;10.944;2023-07-16T13:52:01;27.00;81.00
34099;DHT22;20374;49.474;10.944;2023-07-16T13:54:27;26.70;80.30
34099;DHT22;20374;49.474;10.944;2023-07-16T13:56:53;26.60;82.10
34099;DHT22;20374;49.474;10.944;2023-07-16T13:59:19;26.50;78.50
34099;DHT22;20374;49.474;10.944;2023-07-16T14:01:44;26.20;80.00
34099;DHT22;20374;49.474;10.944;2023-07-16T14:04:11;25.90;80.50
34099;DHT22;20374;49.474;10.944;2023-07-16T14:06:37;25.90;81.70
34099;DHT22;20374;49.474;10.944;2023-07-16T14:09:03;26.10;82.10
34099;DHT22;20374;49.474;10.944;2023-07-16T14:11:31;26.10;80.80
34099;DHT22;20374;49.474;10.944;2023-07-16T14:13:56;26.20;80.40
34099;DHT22;20374;49.474;10.944;2023-07-16T14:16:22;26.40;80.40
34099;DHT22;20374;49.474;10.944;2023-07-16T14:18:51;26.70;82.60
34099;DHT22;20374;49.474;10.944;2023-07-16T14:21:18;26.90;78.40
34099;DHT22;20374;49.474;10.944;2023-07-16T14:23:44;26.80;76.50
34099;DHT22;20374;49.474;10.944;2023-07-16T14:26:10;26.50;76.50
34099;DHT22;20374;49.474;10.944;2023-07-16T14:28:36;26.20;81.90
34099;DHT22;20374;49.474;10.944;2023-07-16T14:31:02;26.20;80.40
34099;DHT22;20374;49.474;10.944;2023-07-16T14:33:28;26.00;79.80
34099;DHT22;20374;49.474;10.944;2023-07-16T14:35:54;26.00;81.30
34099;DHT22;20374;49.474;10.944;2023-07-16T14:38:20;26.20;81.80
34099;DHT22;20374;49.474;10.944;2023-07-16T14:40:46;26.30;80.10
34099;DHT22;20374;49.474;10.944;2023-07-16T14:43:14;26.30;79.40
34099;DHT22;20374;49.474;10.944;2023-07-16T14:45:39;26.20;80.40
34099;DHT22;20374;49.474;10.944;2023-07-16T14:48:06;26.40;81.00
34099;DHT22;20374;49.474;10.944;2023-07-16T14:50:32;26.50;78.00
34099;DHT22;20374;49.474;10.944;2023-07-16T14:52:58;26.50;80.50
34099;DHT22;20374;49.474;10.944;2023-07-16T14:55:23;26.50;78.50
34099;DHT22;20374;49.474;10.944;2023-07-16T14:57:49;26.50;78.30
34099;DHT22;20374;49.474;10.944;2023-07-16T15:00:16;26.50;78.30
34099;DHT22;20374;49.474;10.944;2023-07-16T15:02:42;26.30;77.50
34099;DHT22;20374;49.474;10.944;2023-07-16T15:05:09;26.20;77.30
34099;DHT22;20374;49.474;10.944;2023-07-16T15:07:36;26.10;77.40
34099;DHT22;20374;49.474;10.944;2023-07-16T15:10:03;26.00;78.60
34099;DHT22;20374;49.474;10.944;2023-07-16T15:12:30;25.90;78.60
34099;DHT22;20374;49.474;10.944;2023-07-16T15:14:56;26.00;79.90
34099;DHT22;20374;49.474;10.944;2023-07-16T15:17:22;26.10;79.90
34099;DHT22;20374;49.474;10.944;2023-07-16T15:19:49;26.10;78.40
34099;DHT22;20374;49.474;10.944;2023-07-16T15:22:15;26.00;79.50
34099;DHT22;20374;49.474;10.944;2023-07-16T15:24:44;26.10;79.90